createdAt,value
2023-01-16T00:02:06.369Z,3.35
2023-01-16T00:04:33.003Z,3.35
2023-01-16T00:06:59.493Z,3.35
2023-01-16T00:09:25.999Z,3.37
2023-01-16T00:11:52.580Z,3.36
2023-01-16T00:14:19.146Z,3.35
2023-01-16T00:16:45.888Z,3.34
2023-01-16T00:19:12.454Z,3.34
2023-01-16T00:21:39.062Z,3.34
2023-01-16T00:24:09.098Z,3.34
2023-01-16T00:26:35.665Z,3.33
2023-01-16T00:29:02.347Z,3.33
2023-01-16T00:31:28.856Z,3.33
2023-01-16T00:33:55.436Z,3.34
2023-01-16T00:36:22.010Z,3.34
2023-01-16T00:38:48.484Z,3.31
2023-01-16T00:41:14.970Z,3.33
2023-01-16T00:43:41.757Z,3.31
2023-01-16T00:46:08.402Z,3.32
2023-01-16T00:48:34.912Z,3.32
2023-01-16T00:51:01.485Z,3.33
2023-01-16T00:53:27.951Z,3.34
2023-01-16T00:55:54.718Z,3.35
2023-01-16T00:58:21.313Z,3.34
2023-01-16T01:00:47.920Z,3.34
2023-01-16T01:03:14.764Z,3.36
2023-01-16T01:05:41.446Z,3.34
2023-01-16T01:08:08.083Z,3.34
2023-01-16T01:10:37.940Z,3.35
2023-01-16T01:13:04.539Z,3.36
2023-01-16T01:15:31.078Z,3.37
2023-01-16T01:17:58.552Z,3.37
2023-01-16T01:20:25.397Z,3.38
2023-01-16T01:22:51.939Z,3.37
2023-01-16T01:25:18.467Z,3.37
2023-01-16T01:27:44.998Z,3.39
2023-01-16T01:30:11.924Z,3.39
2023-01-16T01:32:38.624Z,3.42
2023-01-16T01:35:07.101Z,3.42
2023-01-16T01:37:34.335Z,3.43
2023-01-16T01:40:00.793Z,3.43
2023-01-16T01:42:27.391Z,3.45
2023-01-16T01:45:12.926Z,3.45
2023-01-16T01:47:44.044Z,3.47
2023-01-16T01:50:22.558Z,3.48
2023-01-16T01:52:51.061Z,3.49
2023-01-16T01:55:19.449Z,3.50
2023-01-16T01:57:49.851Z,3.48
2023-01-16T02:00:22.113Z,3.47
2023-01-16T02:03:10.170Z,3.47
2023-01-16T02:05:46.085Z,3.44
2023-01-16T02:08:18.435Z,3.44
2023-01-16T02:10:52.363Z,3.45
2023-01-16T02:13:18.887Z,3.46
2023-01-16T02:15:45.474Z,3.46
2023-01-16T02:18:11.941Z,3.47
2023-01-16T02:20:53.531Z,3.44
2023-01-16T02:24:01.162Z,3.44
2023-01-16T02:26:33.399Z,3.39
2023-01-16T02:29:13.381Z,3.45
2023-01-16T02:32:00.540Z,3.44
2023-01-16T02:34:54.537Z,3.41
2023-01-16T02:37:45.332Z,3.40
2023-01-16T02:40:24.891Z,3.37
2023-01-16T02:43:32.091Z,3.34
2023-01-16T02:46:13.159Z,3.30
2023-01-16T02:49:00.134Z,3.29
2023-01-16T02:51:38.380Z,3.23
2023-01-16T02:54:33.715Z,3.21
2023-01-16T02:57:05.593Z,3.20
2023-01-16T02:59:33.208Z,3.19
2023-01-16T03:02:00.072Z,3.19
2023-01-16T03:04:52.583Z,3.16
2023-01-16T03:07:40.528Z,3.14
2023-01-16T03:10:28.617Z,3.11
2023-01-16T03:13:19.505Z,3.07
2023-01-16T03:15:52.462Z,3.03
2023-01-16T03:18:35.040Z,3.04
2023-01-16T03:21:05.898Z,3.01
2023-01-16T03:23:50.714Z,2.99
2023-01-16T03:26:23.035Z,2.99
2023-01-16T03:29:04.820Z,2.98
2023-01-16T03:31:47.442Z,2.98
2023-01-16T03:34:32.597Z,2.99
2023-01-16T03:37:31.928Z,3.00
2023-01-16T03:40:02.721Z,3.00
2023-01-16T03:42:38.318Z,3.00
2023-01-16T03:45:14.939Z,2.99
2023-01-16T03:47:54.066Z,3.01
2023-01-16T03:50:24.841Z,3.00
2023-01-16T03:52:58.773Z,2.98
2023-01-16T03:55:32.562Z,2.99
2023-01-16T03:58:14.710Z,2.96
2023-01-16T04:01:04.049Z,2.95
2023-01-16T04:03:41.973Z,2.95
2023-01-16T04:06:14.197Z,2.88
2023-01-16T04:08:44.873Z,2.88
2023-01-16T04:11:13.942Z,2.89
2023-01-16T04:13:43.621Z,2.89
2023-01-16T04:16:13.806Z,2.86
2023-01-16T04:18:40.799Z,2.85
2023-01-16T04:21:08.713Z,2.83
2023-01-16T04:23:36.325Z,2.82
2023-01-16T04:26:02.872Z,2.81
2023-01-16T04:28:29.411Z,2.80
2023-01-16T04:30:55.970Z,2.77
2023-01-16T04:33:22.742Z,2.76
2023-01-16T04:35:49.232Z,2.74
2023-01-16T04:38:15.977Z,2.70
2023-01-16T04:40:42.532Z,2.68
2023-01-16T04:43:09.084Z,2.66
2023-01-16T04:45:35.712Z,2.63
2023-01-16T04:48:02.279Z,2.59
2023-01-16T04:50:28.993Z,2.58
2023-01-16T04:52:55.635Z,2.55
2023-01-16T04:55:22.087Z,2.50
2023-01-16T04:57:48.929Z,2.48
2023-01-16T05:00:15.765Z,2.46
2023-01-16T05:02:42.344Z,2.44
2023-01-16T05:05:09.178Z,2.41
2023-01-16T05:07:35.687Z,2.36
2023-01-16T05:10:02.307Z,2.31
2023-01-16T05:12:28.974Z,2.31
2023-01-16T05:14:55.571Z,2.27
2023-01-16T05:17:22.171Z,2.24
2023-01-16T05:19:48.878Z,2.22
2023-01-16T05:22:15.412Z,2.21
2023-01-16T05:24:41.904Z,2.18
2023-01-16T05:27:08.628Z,2.16
2023-01-16T05:29:35.184Z,2.13
2023-01-16T05:32:01.835Z,2.12
2023-01-16T05:34:28.456Z,2.12
2023-01-16T05:36:54.906Z,2.10
2023-01-16T05:39:21.476Z,2.08
2023-01-16T05:41:48.145Z,2.06
2023-01-16T05:44:14.918Z,2.04
2023-01-16T05:46:41.506Z,2.02
2023-01-16T05:49:08.100Z,2.00
2023-01-16T05:51:34.582Z,1.98
2023-01-16T05:54:01.151Z,1.99
2023-01-16T05:56:27.672Z,1.98
2023-01-16T05:58:54.796Z,1.98
2023-01-16T06:01:21.419Z,1.96
2023-01-16T06:03:48.021Z,1.96
2023-01-16T06:06:16.119Z,1.92
2023-01-16T06:08:44.441Z,1.91
2023-01-16T06:11:10.890Z,1.87
2023-01-16T06:13:37.425Z,1.82
2023-01-16T06:16:04.000Z,1.79
2023-01-16T06:18:30.687Z,1.75
2023-01-16T06:20:57.256Z,1.70
2023-01-16T06:23:23.885Z,1.69
2023-01-16T06:25:50.820Z,1.66
2023-01-16T06:28:17.366Z,1.61
2023-01-16T06:30:43.994Z,1.59
2023-01-16T06:33:10.464Z,1.55
2023-01-16T06:35:37.079Z,1.53
2023-01-16T06:38:03.542Z,1.49
2023-01-16T06:40:30.089Z,1.47
2023-01-16T06:42:56.653Z,1.42
2023-01-16T06:45:23.375Z,1.43
2023-01-16T06:47:53.759Z,1.40
2023-01-16T06:50:20.669Z,1.40
2023-01-16T06:52:49.104Z,1.40
2023-01-16T06:55:18.074Z,1.39
2023-01-16T06:57:45.097Z,1.40
2023-01-16T07:00:12.891Z,1.39
2023-01-16T07:02:39.372Z,1.39
2023-01-16T07:05:10.399Z,1.40
2023-01-16T07:07:37.185Z,1.40
2023-01-16T07:10:04.917Z,1.40
2023-01-16T07:12:31.478Z,1.41
2023-01-16T07:14:57.999Z,1.40
2023-01-16T07:17:24.504Z,1.41
2023-01-16T07:19:50.966Z,1.42
2023-01-16T07:22:19.216Z,1.40
2023-01-16T07:24:45.861Z,1.40
2023-01-16T07:27:12.402Z,1.42
2023-01-16T07:29:39.075Z,1.44
2023-01-16T07:32:06.250Z,1.48
2023-01-16T07:34:32.749Z,1.49
2023-01-16T07:36:59.341Z,1.50
2023-01-16T07:39:25.874Z,1.53
2023-01-16T07:41:57.800Z,1.54
2023-01-16T07:44:25.458Z,1.56
2023-01-16T07:46:52.102Z,1.58
2023-01-16T07:49:18.674Z,1.60
2023-01-16T07:51:45.234Z,1.61
2023-01-16T07:54:11.876Z,1.64
2023-01-16T07:56:38.535Z,1.69
2023-01-16T07:59:05.180Z,1.71
2023-01-16T08:01:31.727Z,1.75
2023-01-16T08:03:58.262Z,1.80
2023-01-16T08:06:24.905Z,1.84
2023-01-16T08:08:51.519Z,1.89
2023-01-16T08:11:18.113Z,1.93
2023-01-16T08:13:44.601Z,1.98
2023-01-16T08:16:11.238Z,2.04
2023-01-16T08:18:37.777Z,2.08
2023-01-16T08:21:04.511Z,2.12
2023-01-16T08:23:31.046Z,2.18
2023-01-16T08:25:57.525Z,2.23
2023-01-16T08:28:24.147Z,2.28
2023-01-16T08:30:50.692Z,2.31
2023-01-16T08:33:17.153Z,2.36
2023-01-16T08:35:43.750Z,2.41
2023-01-16T08:38:10.264Z,2.49
2023-01-16T08:40:36.828Z,2.56
2023-01-16T08:43:03.480Z,2.61
2023-01-16T08:45:30.451Z,2.67
2023-01-16T08:47:59.041Z,2.72
2023-01-16T08:50:25.612Z,2.78
2023-01-16T08:52:52.269Z,2.85
2023-01-16T08:55:18.803Z,2.89
2023-01-16T08:57:45.555Z,2.95
2023-01-16T09:00:12.468Z,2.99
2023-01-16T09:02:39.038Z,3.05
2023-01-16T09:05:06.124Z,3.11
2023-01-16T09:07:32.591Z,3.18
2023-01-16T09:09:59.214Z,3.24
2023-01-16T09:12:25.752Z,3.30
2023-01-16T09:14:52.288Z,3.34
2023-01-16T09:17:18.800Z,3.43
2023-01-16T09:19:45.296Z,3.54
2023-01-16T09:22:11.809Z,3.57
2023-01-16T09:24:38.471Z,3.63
2023-01-16T09:27:04.994Z,3.67
2023-01-16T09:29:32.414Z,3.71
2023-01-16T09:31:59.535Z,3.77
2023-01-16T09:34:26.161Z,3.80
2023-01-16T09:36:52.780Z,3.88
2023-01-16T09:39:19.340Z,3.89
2023-01-16T09:42:02.030Z,3.93
2023-01-16T09:44:29.488Z,4.00
2023-01-16T09:46:56.976Z,4.09
2023-01-16T09:49:31.985Z,4.14
2023-01-16T09:52:05.228Z,4.22
2023-01-16T09:54:38.327Z,4.24
2023-01-16T09:57:13.958Z,4.29
2023-01-16T09:59:47.248Z,4.36
2023-01-16T10:02:25.675Z,4.44
2023-01-16T10:04:54.761Z,4.48
2023-01-16T10:07:56.437Z,4.56
2023-01-16T10:10:44.826Z,4.62
2023-01-16T10:13:53.547Z,4.68
2023-01-16T10:16:46.141Z,4.78
2023-01-16T10:19:34.112Z,4.83
2023-01-16T10:22:18.321Z,4.85
2023-01-16T10:25:22.916Z,4.93
2023-01-16T10:28:24.728Z,4.94
2023-01-16T10:30:55.770Z,4.98
2023-01-16T10:33:52.762Z,5.03
2023-01-16T10:36:21.708Z,5.08
2023-01-16T10:38:55.663Z,5.13
2023-01-16T10:41:34.323Z,5.18
2023-01-16T10:44:04.705Z,5.24
2023-01-16T10:46:43.087Z,5.30
2023-01-16T10:49:17.547Z,5.35
2023-01-16T10:51:44.545Z,5.37
2023-01-16T10:54:11.188Z,5.39
2023-01-16T10:56:37.817Z,5.43
2023-01-16T10:59:04.355Z,5.45
2023-01-16T11:01:32.285Z,5.47
2023-01-16T11:04:01.703Z,5.53
2023-01-16T11:06:30.791Z,5.57
2023-01-16T11:09:15.646Z,5.63
2023-01-16T11:11:43.398Z,5.66
2023-01-16T11:14:23.195Z,5.71
2023-01-16T11:16:50.730Z,5.79
2023-01-16T11:19:26.619Z,5.83
2023-01-16T11:21:58.239Z,5.90
2023-01-16T11:24:32.722Z,5.96
2023-01-16T11:27:00.782Z,6.05
2023-01-16T11:29:35.784Z,6.10
2023-01-16T11:32:07.279Z,6.19
2023-01-16T11:34:33.974Z,6.28
2023-01-16T11:37:04.505Z,6.29
2023-01-16T11:39:33.973Z,6.40
2023-01-16T11:42:05.863Z,6.44
2023-01-16T11:44:34.917Z,6.51
2023-01-16T11:47:02.246Z,6.57
2023-01-16T11:49:40.400Z,6.60
2023-01-16T11:52:12.257Z,6.56
2023-01-16T11:54:38.785Z,6.69
2023-01-16T11:57:20.904Z,6.72
2023-01-16T12:00:24.525Z,6.75
2023-01-16T12:03:39.194Z,6.75
2023-01-16T12:06:15.846Z,6.82
2023-01-16T12:09:15.228Z,6.84
2023-01-16T12:12:10.743Z,6.85
2023-01-16T12:14:48.126Z,6.92
2023-01-16T12:17:38.892Z,6.93
2023-01-16T12:20:25.116Z,6.95
2023-01-16T12:23:17.948Z,7.00
2023-01-16T12:25:56.400Z,6.98
2023-01-16T12:28:42.207Z,7.00
2023-01-16T12:31:45.084Z,7.03
2023-01-16T12:34:36.294Z,7.06
2023-01-16T12:37:32.913Z,7.09
2023-01-16T12:40:27.737Z,7.14
2023-01-16T12:43:07.098Z,7.15
2023-01-16T12:45:49.069Z,7.17
2023-01-16T12:48:48.970Z,7.20
2023-01-16T12:51:18.675Z,7.23
2023-01-16T12:54:07.791Z,7.28
2023-01-16T12:57:22.311Z,7.28
2023-01-16T12:59:54.777Z,7.33
2023-01-16T13:02:41.111Z,7.34
2023-01-16T13:05:13.753Z,7.38
2023-01-16T13:08:00.854Z,7.41
2023-01-16T13:10:36.050Z,7.42
2023-01-16T13:13:04.171Z,7.49
2023-01-16T13:15:34.995Z,7.51
2023-01-16T13:18:14.997Z,7.53
2023-01-16T13:20:44.991Z,7.57
2023-01-16T13:23:25.270Z,7.59
2023-01-16T13:26:02.601Z,7.62
2023-01-16T13:28:38.915Z,7.59
2023-01-16T13:31:15.240Z,7.61
2023-01-16T13:33:45.680Z,7.62
2023-01-16T13:36:30.451Z,7.61
2023-01-16T13:39:06.037Z,7.63
2023-01-16T13:41:44.379Z,7.62
2023-01-16T13:44:22.474Z,7.59
2023-01-16T13:46:49.226Z,7.54
2023-01-16T13:49:21.271Z,7.59
2023-01-16T13:51:50.882Z,7.59
2023-01-16T13:54:22.603Z,7.60
2023-01-16T13:57:19.836Z,7.60
2023-01-16T13:59:52.241Z,7.56
2023-01-16T14:02:24.613Z,7.56
2023-01-16T14:05:06.392Z,7.52
2023-01-16T14:07:50.923Z,7.48
2023-01-16T14:10:25.354Z,7.44
2023-01-16T14:13:13.879Z,7.39
2023-01-16T14:15:57.091Z,7.36
2023-01-16T14:18:40.355Z,7.35
2023-01-16T14:21:20.820Z,7.33
2023-01-16T14:23:55.231Z,7.32
2023-01-16T14:26:49.231Z,7.29
2023-01-16T14:29:23.400Z,7.28
2023-01-16T14:32:06.502Z,7.28
2023-01-16T14:34:37.651Z,7.28
2023-01-16T14:37:11.775Z,7.29
2023-01-16T14:39:49.998Z,7.28
2023-01-16T14:42:33.192Z,7.28
2023-01-16T14:45:09.659Z,7.25
2023-01-16T14:47:46.888Z,7.23
2023-01-16T14:50:18.426Z,7.21
2023-01-16T14:52:51.725Z,7.21
2023-01-16T14:55:18.960Z,7.20
2023-01-16T14:57:46.812Z,7.18
2023-01-16T15:00:20.617Z,7.17
2023-01-16T15:03:15.626Z,7.13
2023-01-16T15:06:02.522Z,7.11
2023-01-16T15:08:36.415Z,7.11
2023-01-16T15:11:13.465Z,7.06
2023-01-16T15:13:39.987Z,7.02
2023-01-16T15:16:08.773Z,6.99
2023-01-16T15:18:43.803Z,6.94
2023-01-16T15:21:18.645Z,6.87
2023-01-16T15:23:45.855Z,6.84
2023-01-16T15:26:38.247Z,6.79
2023-01-16T15:29:24.988Z,6.72
2023-01-16T15:31:57.974Z,6.67
2023-01-16T15:34:26.627Z,6.64
2023-01-16T15:36:54.918Z,6.61
2023-01-16T15:39:25.443Z,6.50
2023-01-16T15:42:04.084Z,6.51
2023-01-16T15:44:31.547Z,6.49
2023-01-16T15:47:20.501Z,6.45
2023-01-16T15:49:58.509Z,6.40
2023-01-16T15:52:32.489Z,6.32
2023-01-16T15:55:00.107Z,6.34
2023-01-16T15:57:27.054Z,6.31
2023-01-16T15:59:55.979Z,6.27
2023-01-16T16:02:28.226Z,6.24
2023-01-16T16:04:57.840Z,6.21
2023-01-16T16:07:25.166Z,6.17
2023-01-16T16:09:55.024Z,6.13
2023-01-16T16:12:22.668Z,6.10
2023-01-16T16:14:49.373Z,6.06
2023-01-16T16:17:30.769Z,6.01
2023-01-16T16:20:00.027Z,5.97
2023-01-16T16:22:26.589Z,5.92
2023-01-16T16:24:53.639Z,5.87
2023-01-16T16:27:20.591Z,5.81
2023-01-16T16:29:54.498Z,5.75
2023-01-16T16:32:21.719Z,5.71
2023-01-16T16:34:57.131Z,5.62
2023-01-16T16:37:25.120Z,5.59
2023-01-16T16:40:08.858Z,5.55
2023-01-16T16:42:35.285Z,5.52
2023-01-16T16:45:07.774Z,5.49
2023-01-16T16:47:41.431Z,5.46
2023-01-16T16:50:30.532Z,5.43
2023-01-16T16:53:16.537Z,5.41
2023-01-16T16:55:48.439Z,5.41
2023-01-16T16:58:17.748Z,5.40
2023-01-16T17:00:45.397Z,5.38
2023-01-16T17:03:19.403Z,5.34
2023-01-16T17:05:47.899Z,5.31
2023-01-16T17:08:17.961Z,5.29
2023-01-16T17:10:44.583Z,5.24
2023-01-16T17:13:11.988Z,5.21
2023-01-16T17:15:38.736Z,5.16
2023-01-16T17:18:05.321Z,5.12
2023-01-16T17:20:31.962Z,5.07
2023-01-16T17:22:58.401Z,5.03
2023-01-16T17:25:24.961Z,5.00
2023-01-16T17:27:53.160Z,4.98
2023-01-16T17:30:20.491Z,4.90
2023-01-16T17:32:58.113Z,4.93
2023-01-16T17:35:25.039Z,4.94
2023-01-16T17:37:51.649Z,4.93
2023-01-16T17:40:19.079Z,4.93
2023-01-16T17:42:45.673Z,4.92
2023-01-16T17:45:34.091Z,4.92
2023-01-16T17:48:00.554Z,4.93
2023-01-16T17:50:27.016Z,4.93
2023-01-16T17:52:53.748Z,4.93
2023-01-16T17:55:20.505Z,4.90
2023-01-16T17:57:47.008Z,4.88
2023-01-16T18:00:14.060Z,4.84
2023-01-16T18:02:40.693Z,4.80
2023-01-16T18:05:07.940Z,4.76
2023-01-16T18:07:34.564Z,4.71
2023-01-16T18:10:01.210Z,4.70
2023-01-16T18:12:27.684Z,4.68
2023-01-16T18:14:54.348Z,4.65
2023-01-16T18:17:20.961Z,4.64
2023-01-16T18:22:31.223Z,4.57
2023-01-16T18:24:57.937Z,4.54
2023-01-16T18:27:27.241Z,4.49
2023-01-16T18:29:54.302Z,4.42
2023-01-16T18:32:21.278Z,4.36
2023-01-16T18:34:55.821Z,4.29
2023-01-16T18:37:31.030Z,4.24
2023-01-16T18:39:57.754Z,4.16
2023-01-16T18:42:24.224Z,4.09
2023-01-16T18:44:50.817Z,4.04
2023-01-16T18:47:17.515Z,3.98
2023-01-16T18:49:44.068Z,3.92
2023-01-16T18:52:18.690Z,3.89
2023-01-16T18:54:46.078Z,3.87
2023-01-16T18:57:16.124Z,3.83
2023-01-16T18:59:42.734Z,3.82
2023-01-16T19:02:12.160Z,3.80
2023-01-16T19:04:39.182Z,3.82
2023-01-16T19:07:10.234Z,3.83
2023-01-16T19:09:37.632Z,3.86
2023-01-16T19:12:05.944Z,3.88
2023-01-16T19:14:35.768Z,3.89
2023-01-16T19:17:02.328Z,3.93
2023-01-16T19:19:28.912Z,3.98
2023-01-16T19:21:59.111Z,4.03
2023-01-16T19:24:25.916Z,4.09
2023-01-16T19:26:52.399Z,4.14
2023-01-16T19:29:21.128Z,4.20
2023-01-16T19:31:48.208Z,4.28
2023-01-16T19:34:14.965Z,4.36
2023-01-16T19:36:41.744Z,4.44
2023-01-16T19:39:08.779Z,4.49
2023-01-16T19:41:36.849Z,4.50
2023-01-16T19:44:03.452Z,4.53
2023-01-16T19:46:30.029Z,4.67
2023-01-16T19:48:58.002Z,4.76
2023-01-16T19:51:27.712Z,4.71
2023-01-16T19:53:54.856Z,4.82
2023-01-16T19:56:21.395Z,4.90
2023-01-16T19:58:48.067Z,4.98
2023-01-16T20:01:15.424Z,5.06
2023-01-16T20:03:45.218Z,5.13
2023-01-16T20:06:11.898Z,5.22
2023-01-16T20:08:50.032Z,5.27
2023-01-16T20:11:17.562Z,5.38
2023-01-16T20:13:44.058Z,5.49
2023-01-16T20:16:10.840Z,5.49
2023-01-16T20:18:37.367Z,5.49
2023-01-16T20:21:10.748Z,5.51
2023-01-16T20:23:38.000Z,5.49
2023-01-16T20:26:06.993Z,5.47
2023-01-16T20:28:35.841Z,5.43
2023-01-16T20:31:02.379Z,5.38
2023-01-16T20:33:29.528Z,5.37
2023-01-16T20:36:04.533Z,5.36
2023-01-16T20:38:31.216Z,5.37
2023-01-16T20:41:12.072Z,5.41
2023-01-16T20:43:38.702Z,5.46
2023-01-16T20:46:06.436Z,5.45
2023-01-16T20:48:32.963Z,5.47
2023-01-16T20:51:03.935Z,5.40
2023-01-16T20:53:30.467Z,5.47
2023-01-16T20:55:57.022Z,5.49
2023-01-16T20:58:23.554Z,5.51
2023-01-16T21:00:50.078Z,5.48
2023-01-16T21:03:16.814Z,5.49
2023-01-16T21:05:43.379Z,5.49
2023-01-16T21:08:09.895Z,5.45
2023-01-16T21:10:36.411Z,5.40
2023-01-16T21:13:02.952Z,5.41
2023-01-16T21:15:29.459Z,5.41
2023-01-16T21:17:56.035Z,5.38
2023-01-16T21:20:22.657Z,5.36
2023-01-16T21:22:49.148Z,5.31
2023-01-16T21:25:16.403Z,5.35
2023-01-16T21:27:43.257Z,5.23
2023-01-16T21:30:12.865Z,5.26
2023-01-16T21:32:39.893Z,5.23
2023-01-16T21:35:06.973Z,5.17
2023-01-16T21:37:33.716Z,5.16
2023-01-16T21:40:00.258Z,5.12
2023-01-16T21:42:26.832Z,5.09
2023-01-16T21:44:53.378Z,5.07
2023-01-16T21:47:20.351Z,5.02
2023-01-16T21:49:46.857Z,4.96
2023-01-16T21:52:13.313Z,4.92
2023-01-16T21:54:39.783Z,4.87
2023-01-16T21:57:06.560Z,4.80
2023-01-16T21:59:33.093Z,4.77
2023-01-16T22:01:59.783Z,4.72
2023-01-16T22:04:26.411Z,4.65
2023-01-16T22:06:53.054Z,4.58
2023-01-16T22:09:19.596Z,4.53
2023-01-16T22:11:47.047Z,4.51
2023-01-16T22:14:13.841Z,4.46
2023-01-16T22:16:40.421Z,4.46
2023-01-16T22:19:06.931Z,4.42
2023-01-16T22:21:33.394Z,4.43
2023-01-16T22:23:59.865Z,4.45
2023-01-16T22:26:26.407Z,4.44
2023-01-16T22:28:52.869Z,4.41
2023-01-16T22:31:19.546Z,4.43
2023-01-16T22:33:46.043Z,4.45
2023-01-16T22:36:12.593Z,4.44
2023-01-16T22:38:40.194Z,4.45
2023-01-16T22:41:08.411Z,4.45
2023-01-16T22:43:35.486Z,4.51
2023-01-16T22:46:02.258Z,4.52
2023-01-16T22:48:28.936Z,4.56
2023-01-16T22:50:55.514Z,4.53
2023-01-16T22:53:22.075Z,4.56
2023-01-16T22:55:55.357Z,4.58
2023-01-16T22:58:21.947Z,4.61
2023-01-16T23:00:48.511Z,4.64
2023-01-16T23:03:15.164Z,4.64
2023-01-16T23:05:41.677Z,4.66
2023-01-16T23:08:08.170Z,4.67
2023-01-16T23:10:34.910Z,4.66
2023-01-16T23:13:01.384Z,4.66
2023-01-16T23:15:28.001Z,4.67
2023-01-16T23:17:54.603Z,4.70
2023-01-16T23:20:21.164Z,4.72
2023-01-16T23:22:47.705Z,4.71
2023-01-16T23:25:14.324Z,4.71
2023-01-16T23:27:40.892Z,4.73
2023-01-16T23:30:08.219Z,4.75
2023-01-16T23:32:34.741Z,4.75
2023-01-16T23:35:01.255Z,4.76
2023-01-16T23:37:27.863Z,4.79
2023-01-16T23:39:54.520Z,4.75
2023-01-16T23:42:20.991Z,4.77
2023-01-16T23:44:47.600Z,4.76
2023-01-16T23:47:19.847Z,4.75
2023-01-16T23:49:52.323Z,4.77
2023-01-16T23:52:25.909Z,4.74
2023-01-16T23:54:52.602Z,4.75
2023-01-16T23:57:23.594Z,4.73
2023-01-16T23:59:50.322Z,4.69
